Time;durP1;ratioP1;P1;durP2;ratioP2;P2;SDS_P1;SDS_P2;PMS_P1;PMS_P2;Temp;Humidity;BMP_temperature;BMP_pressure;BME280_temperature;BME280_humidity;BME280_pressure;Samples;Min_cycle;Max_cycle;Signal;HPM_P1;HPM_P2
2024/02/04 00:00:40;;;;;;;2.90;2.53;;;;;;;;;;4772740;30;20193;-86
2024/02/04 00:03:44;;;;;;;3.53;2.63;;;;;;;;;;4803562;29;20239;-86
2024/02/04 00:06:48;;;;;;;3.67;3.07;;;;;;;;;;4793703;30;20197;-86
2024/02/04 00:09:52;;;;;;;3.97;3.20;;;;;;;;;;4782450;30;20194;-86
2024/02/04 00:12:56;;;;;;;3.93;3.37;;;;;;;;;;4782059;30;20189;-86
2024/02/04 00:16:01;;;;;;;4.70;3.17;;;;;;;;;;4782318;30;20202;-86
2024/02/04 00:19:08;;;;;;;5.13;3.07;;;;;;;;;;4782236;30;20225;-86
2024/02/04 00:22:12;;;;;;;3.70;3.10;;;;;;;;;;4781702;30;20534;-86
2024/02/04 00:25:19;;;;;;;4.20;2.80;;;;;;;;;;4792605;30;20189;-86
2024/02/04 00:28:23;;;;;;;3.47;3.17;;;;;;;;;;4780596;30;20229;-86
2024/02/04 00:31:28;;;;;;;3.03;2.73;;;;;;;;;;4804317;29;20194;-86
2024/02/04 00:34:32;;;;;;;3.00;2.40;;;;;;;;;;4781976;30;20185;-86
2024/02/04 00:37:36;;;;;;;3.20;2.67;;;;;;;;;;4782961;30;20225;-86
2024/02/04 00:40:40;;;;;;;2.80;2.23;;;;;;;;;;4781793;30;20221;-82
2024/02/04 00:43:44;;;;;;;3.20;2.47;;;;;;;;;;4791263;30;20225;-82
2024/02/04 00:46:48;;;;;;;2.93;2.30;;;;;;;;;;4781223;30;20193;-83
2024/02/04 00:49:53;;;;;;;2.60;2.10;;;;;;;;;;4781239;30;20193;-82
2024/02/04 00:52:58;;;;;;;5.77;1.97;;;;;;;;;;4780837;30;20189;-82
2024/02/04 00:56:04;;;;;;;2.77;2.00;;;;;;;;;;4780427;30;20193;-82
2024/02/04 00:59:08;;;;;;;2.10;1.80;;;;;;;;;;4791696;30;20229;-82
2024/02/04 01:02:12;;;;;;;3.50;2.10;;;;;;;;;;4792022;30;20193;-82
2024/02/04 01:05:17;;;;;;;2.57;1.90;;;;;;;;;;4781031;30;20198;-82
2024/02/04 01:08:21;;;;;;;2.00;1.80;;;;;;;;;;4780967;30;20241;-82
2024/02/04 01:11:25;;;;;;;2.17;1.80;;;;;;;;;;4792067;30;20189;-83
2024/02/04 01:14:29;;;;;;;2.50;1.87;;;;;;;;;;4791717;30;20193;-82
2024/02/04 01:17:34;;;;;;;1.90;1.70;;;;;;;;;;4780731;30;20236;-82
2024/02/04 01:20:38;;;;;;;2.20;2.00;;;;;;;;;;4781492;30;20193;-82
2024/02/04 01:23:42;;;;;;;2.10;1.90;;;;;;;;;;4780503;30;20221;-82
2024/02/04 01:26:46;;;;;;;3.27;2.00;;;;;;;;;;4779860;30;20219;-82
2024/02/04 01:29:53;;;;;;;1.77;1.67;;;;;;;;;;4780429;30;20672;-82
2024/02/04 01:32:57;;;;;;;1.63;1.53;;;;;;;;;;4770451;30;20193;-83
2024/02/04 01:36:01;;;;;;;2.03;1.60;;;;;;;;;;4780154;30;20201;-82
2024/02/04 01:39:05;;;;;;;2.00;1.80;;;;;;;;;;4781023;29;20233;-82
2024/02/04 01:42:10;;;;;;;2.43;1.67;;;;;;;;;;4804659;29;20217;-82
2024/02/04 01:45:14;;;;;;;1.60;1.43;;;;;;;;;;4783876;30;20190;-82
2024/02/04 01:48:20;;;;;;;1.43;1.33;;;;;;;;;;4782874;30;20237;-82
2024/02/04 01:51:24;;;;;;;3.00;1.57;;;;;;;;;;4783242;30;20194;-82
2024/02/04 01:54:31;;;;;;;1.43;1.33;;;;;;;;;;4793955;30;20186;-82
2024/02/04 01:57:35;;;;;;;3.00;1.60;;;;;;;;;;4783213;30;20233;-82
2024/02/04 02:00:40;;;;;;;1.90;1.43;;;;;;;;;;4783780;30;20189;-82
2024/02/04 02:03:44;;;;;;;1.97;1.43;;;;;;;;;;4773059;30;20229;-83
2024/02/04 02:06:48;;;;;;;1.40;1.30;;;;;;;;;;4782927;30;20193;-82
2024/02/04 02:09:53;;;;;;;1.80;1.50;;;;;;;;;;4794417;30;20189;-83
2024/02/04 02:13:04;;;;;;;1.87;1.50;;;;;;;;;;4782889;30;20194;-82
2024/02/04 02:16:15;;;;;;;1.60;1.40;;;;;;;;;;4793305;29;20197;-83
2024/02/04 02:19:38;;;;;;;1.50;1.40;;;;;;;;;;4783037;30;20221;-82
2024/02/04 02:22:51;;;;;;;2.00;1.27;;;;;;;;;;4803975;29;20198;-82
2024/02/04 02:25:56;;;;;;;2.70;1.20;;;;;;;;;;4782943;30;20189;-82
2024/02/04 02:29:00;;;;;;;1.77;1.30;;;;;;;;;;4782882;30;20229;-82
2024/02/04 02:32:04;;;;;;;1.60;1.40;;;;;;;;;;4794450;30;20536;-82
2024/02/04 02:35:10;;;;;;;1.50;1.40;;;;;;;;;;4794202;30;20190;-83
2024/02/04 02:38:38;;;;;;;1.43;1.30;;;;;;;;;;4793307;30;20233;-83
2024/02/04 02:41:44;;;;;;;2.30;2.07;;;;;;;;;;4792695;30;20221;-82
2024/02/04 02:44:50;;;;;;;3.10;1.83;;;;;;;;;;4802559;29;20222;-82
2024/02/04 02:47:54;;;;;;;2.97;2.00;;;;;;;;;;4802873;29;20704;-82
2024/02/04 02:50:58;;;;;;;2.83;2.30;;;;;;;;;;4781117;30;20543;-82
2024/02/04 02:54:02;;;;;;;2.40;2.10;;;;;;;;;;4782335;30;20194;-82
2024/02/04 02:57:07;;;;;;;2.60;2.03;;;;;;;;;;4803099;29;20197;-82
2024/02/04 03:00:11;;;;;;;3.03;2.23;;;;;;;;;;4782703;30;20648;-82
2024/02/04 03:03:15;;;;;;;2.97;2.00;;;;;;;;;;4782325;30;20648;-82
2024/02/04 03:06:19;;;;;;;2.50;1.97;;;;;;;;;;4781741;30;20660;-82
2024/02/04 03:09:24;;;;;;;2.30;1.80;;;;;;;;;;4782073;30;20193;-82
2024/02/04 03:12:28;;;;;;;2.23;2.00;;;;;;;;;;4771936;30;20193;-82
2024/02/04 03:15:32;;;;;;;1.80;1.60;;;;;;;;;;4771561;30;20198;-82
2024/02/04 03:18:39;;;;;;;2.80;1.50;;;;;;;;;;4781513;30;20703;-82
2024/02/04 03:21:43;;;;;;;1.83;1.60;;;;;;;;;;4781468;30;20202;-82
2024/02/04 03:24:48;;;;;;;2.10;1.90;;;;;;;;;;4801866;29;20225;-82
2024/02/04 03:27:55;;;;;;;2.70;1.67;;;;;;;;;;4781579;30;20233;-82
2024/02/04 03:30:59;;;;;;;1.97;1.80;;;;;;;;;;4781407;30;20198;-82
2024/02/04 03:34:03;;;;;;;1.73;1.53;;;;;;;;;;4780901;30;20189;-82
2024/02/04 03:37:07;;;;;;;1.73;1.60;;;;;;;;;;4780978;30;20193;-82
2024/02/04 03:40:12;;;;;;;1.67;1.53;;;;;;;;;;4801624;29;20217;-82
2024/02/04 03:43:16;;;;;;;1.53;1.40;;;;;;;;;;4780443;30;20202;-82
2024/02/04 03:46:20;;;;;;;1.70;1.50;;;;;;;;;;4780676;30;20652;-82
2024/02/04 03:49:26;;;;;;;1.70;1.50;;;;;;;;;;4780760;30;20530;-83
2024/02/04 03:52:30;;;;;;;2.10;1.30;;;;;;;;;;4780978;30;20201;-83
2024/02/04 03:55:34;;;;;;;3.17;1.60;;;;;;;;;;4771688;30;20186;-82
2024/02/04 03:58:40;;;;;;;1.43;1.30;;;;;;;;;;4780720;30;20573;-82
2024/02/04 04:01:53;;;;;;;2.17;1.60;;;;;;;;;;4780502;29;20202;-83
2024/02/04 04:04:57;;;;;;;1.60;1.43;;;;;;;;;;4791909;30;20217;-82
2024/02/04 04:08:01;;;;;;;1.67;1.40;;;;;;;;;;4770355;30;20237;-82
2024/02/04 04:11:08;;;;;;;2.77;1.60;;;;;;;;;;4780599;30;20193;-82
2024/02/04 04:14:12;;;;;;;2.43;1.63;;;;;;;;;;4791526;30;20194;-83
2024/02/04 04:17:16;;;;;;;1.80;1.70;;;;;;;;;;4791449;30;20194;-82
2024/02/04 04:20:21;;;;;;;1.40;1.30;;;;;;;;;;4779793;30;20190;-82
2024/02/04 04:23:25;;;;;;;1.60;1.40;;;;;;;;;;4779974;30;20194;-82
2024/02/04 04:26:29;;;;;;;1.50;1.40;;;;;;;;;;4791404;30;20185;-82
2024/02/04 04:29:33;;;;;;;2.70;1.87;;;;;;;;;;4779704;30;20197;-82
2024/02/04 04:32:37;;;;;;;3.13;2.27;;;;;;;;;;4780192;30;20197;-82
2024/02/04 04:35:41;;;;;;;2.23;2.00;;;;;;;;;;4790387;29;20185;-82
2024/02/04 04:38:49;;;;;;;2.40;1.90;;;;;;;;;;4779195;30;20225;-82
2024/02/04 04:41:53;;;;;;;2.27;2.00;;;;;;;;;;4790480;30;20225;-83
2024/02/04 04:44:57;;;;;;;2.80;1.93;;;;;;;;;;4790884;30;20228;-83
2024/02/04 04:48:03;;;;;;;2.43;2.10;;;;;;;;;;4790809;30;20233;-83
2024/02/04 04:51:11;;;;;;;2.40;1.90;;;;;;;;;;4790747;30;20190;-83
2024/02/04 04:54:15;;;;;;;2.40;2.17;;;;;;;;;;4779880;30;20198;-83
2024/02/04 04:57:20;;;;;;;3.50;2.23;;;;;;;;;;4791205;30;20577;-83
2024/02/04 05:00:24;;;;;;;2.87;2.17;;;;;;;;;;4790544;30;20545;-83
2024/02/04 05:03:28;;;;;;;3.57;2.33;;;;;;;;;;4790555;30;20525;-83
2024/02/04 05:06:32;;;;;;;3.50;2.30;;;;;;;;;;4790531;30;20186;-83
2024/02/04 05:09:36;;;;;;;2.50;2.23;;;;;;;;;;4790938;30;20557;-83
2024/02/04 05:12:40;;;;;;;3.23;2.87;;;;;;;;;;4779992;30;20197;-83
2024/02/04 05:15:44;;;;;;;3.13;2.33;;;;;;;;;;4799854;29;20632;-83
2024/02/04 05:18:48;;;;;;;3.17;2.27;;;;;;;;;;4779227;30;20233;-83
2024/02/04 05:21:53;;;;;;;3.07;2.20;;;;;;;;;;4779809;30;20209;-83
2024/02/04 05:24:57;;;;;;;4.43;2.50;;;;;;;;;;4790269;30;20217;-83
2024/02/04 05:28:02;;;;;;;5.03;2.50;;;;;;;;;;4790548;30;20233;-82
2024/02/04 05:31:06;;;;;;;8.50;2.40;;;;;;;;;;4779531;30;20193;-82
2024/02/04 05:34:11;;;;;;;3.80;2.43;;;;;;;;;;4790778;30;20198;-82
2024/02/04 05:37:15;;;;;;;2.83;2.40;;;;;;;;;;4800132;29;20198;-82
2024/02/04 05:40:20;;;;;;;3.43;1.90;;;;;;;;;;4779216;30;20648;-82
2024/02/04 05:43:24;;;;;;;2.33;1.93;;;;;;;;;;4790265;30;20186;-82
2024/02/04 05:46:28;;;;;;;3.03;2.30;;;;;;;;;;4779235;30;20190;-83
2024/02/04 05:49:33;;;;;;;2.57;2.17;;;;;;;;;;4779634;30;20201;-82
2024/02/04 05:52:37;;;;;;;2.03;1.90;;;;;;;;;;4790570;30;20197;-82
2024/02/04 05:55:41;;;;;;;2.53;2.07;;;;;;;;;;4790497;30;20644;-82
2024/02/04 05:58:46;;;;;;;3.03;2.27;;;;;;;;;;4769993;30;20229;-82
2024/02/04 06:01:50;;;;;;;3.23;2.00;;;;;;;;;;4789116;30;20194;-82
2024/02/04 06:04:54;;;;;;;2.20;1.73;;;;;;;;;;4778206;30;20217;-82
2024/02/04 06:07:58;;;;;;;2.37;2.00;;;;;;;;;;4777956;30;20232;-82
2024/02/04 06:11:03;;;;;;;2.10;1.90;;;;;;;;;;4779213;30;20193;-82
2024/02/04 06:14:07;;;;;;;3.33;1.83;;;;;;;;;;4778500;30;20190;-82
2024/02/04 06:17:11;;;;;;;2.23;1.90;;;;;;;;;;4789648;30;20186;-82
2024/02/04 06:20:16;;;;;;;2.00;1.80;;;;;;;;;;4789978;30;20194;-82
2024/02/04 06:23:20;;;;;;;2.20;2.00;;;;;;;;;;4789956;30;20194;-82
2024/02/04 06:26:24;;;;;;;2.40;2.00;;;;;;;;;;4779755;30;20234;-82
2024/02/04 06:29:31;;;;;;;2.20;1.87;;;;;;;;;;4781665;30;20194;-82
2024/02/04 06:32:35;;;;;;;2.20;2.00;;;;;;;;;;4792709;30;20189;-84
2024/02/04 06:35:39;;;;;;;2.63;1.90;;;;;;;;;;4781875;30;20190;-82
2024/02/04 06:38:43;;;;;;;5.93;2.40;;;;;;;;;;4792545;30;20233;-82
2024/02/04 06:41:47;;;;;;;2.10;1.70;;;;;;;;;;4793124;30;20222;-82
2024/02/04 06:44:52;;;;;;;2.67;1.97;;;;;;;;;;4793233;30;20221;-83
2024/02/04 06:47:56;;;;;;;2.07;1.87;;;;;;;;;;4782564;30;20225;-82
2024/02/04 06:51:01;;;;;;;2.10;1.90;;;;;;;;;;4792581;30;20202;-82
2024/02/04 06:54:06;;;;;;;2.30;2.10;;;;;;;;;;4792374;30;20537;-82
2024/02/04 06:57:11;;;;;;;2.13;1.87;;;;;;;;;;4780982;30;20185;-82
2024/02/04 07:00:15;;;;;;;3.03;1.93;;;;;;;;;;4792523;30;20193;-82
2024/02/04 07:03:19;;;;;;;2.33;2.10;;;;;;;;;;4791810;30;20194;-82
2024/02/04 07:06:24;;;;;;;5.03;4.23;;;;;;;;;;4791631;30;20225;-82
2024/02/04 07:09:28;;;;;;;10.97;7.67;;;;;;;;;;4780687;30;20198;-82
2024/02/04 07:12:32;;;;;;;3.63;2.80;;;;;;;;;;4791973;30;20189;-83
2024/02/04 07:15:36;;;;;;;2.43;2.13;;;;;;;;;;4792021;30;20194;-82
2024/02/04 07:18:40;;;;;;;2.87;2.00;;;;;;;;;;4781120;30;20221;-82
2024/02/04 07:21:44;;;;;;;2.30;2.10;;;;;;;;;;4791914;30;20194;-83
2024/02/04 07:24:48;;;;;;;6.00;2.30;;;;;;;;;;4791520;30;20197;-81
2024/02/04 07:27:53;;;;;;;9.73;7.50;;;;;;;;;;4791163;30;20233;-82
2024/02/04 07:30:57;;;;;;;4.33;3.00;;;;;;;;;;4781281;30;20197;-82
2024/02/04 07:34:01;;;;;;;5.00;2.10;;;;;;;;;;4791976;30;20202;-82
2024/02/04 07:37:05;;;;;;;2.33;2.13;;;;;;;;;;4780215;29;20190;-82
2024/02/04 07:40:10;;;;;;;3.77;2.50;;;;;;;;;;4780416;30;20193;-82
2024/02/04 07:43:14;;;;;;;4.13;2.40;;;;;;;;;;4792203;30;20193;-82
2024/02/04 07:46:18;;;;;;;5.00;3.87;;;;;;;;;;4791336;30;20569;-82
2024/02/04 07:49:22;;;;;;;4.30;2.30;;;;;;;;;;4780592;30;20201;-82
2024/02/04 07:52:27;;;;;;;3.70;3.40;;;;;;;;;;4780434;30;20202;-82
2024/02/04 07:55:32;;;;;;;4.07;2.60;;;;;;;;;;4800546;29;20189;-82
2024/02/04 07:58:36;;;;;;;6.73;4.83;;;;;;;;;;4790805;30;20233;-83
2024/02/04 08:01:41;;;;;;;4.00;2.33;;;;;;;;;;4780383;30;20202;-82
2024/02/04 08:04:46;;;;;;;10.90;8.60;;;;;;;;;;4791317;30;20197;-82
2024/02/04 08:07:51;;;;;;;2.70;2.07;;;;;;;;;;4779804;30;20229;-82
2024/02/04 08:10:56;;;;;;;3.30;2.50;;;;;;;;;;4790670;30;20552;-82
2024/02/04 08:14:00;;;;;;;2.53;2.03;;;;;;;;;;4790549;30;20193;-82
2024/02/04 08:17:05;;;;;;;1.90;1.60;;;;;;;;;;4779093;30;20198;-82
2024/02/04 08:20:09;;;;;;;3.13;1.70;;;;;;;;;;4780159;30;20193;-82
2024/02/04 08:23:13;;;;;;;2.07;1.53;;;;;;;;;;4791265;30;20529;-82
2024/02/04 08:26:18;;;;;;;4.37;2.13;;;;;;;;;;4779740;30;20243;-82
2024/02/04 08:29:22;;;;;;;2.00;1.47;;;;;;;;;;4781320;30;20217;-82
2024/02/04 08:32:27;;;;;;;3.00;2.60;;;;;;;;;;4780136;30;20194;-82
2024/02/04 08:35:31;;;;;;;9.53;7.17;;;;;;;;;;4780218;30;20537;-82
2024/02/04 08:38:35;;;;;;;3.33;2.10;;;;;;;;;;4780258;30;20233;-82
2024/02/04 08:41:40;;;;;;;3.27;2.50;;;;;;;;;;4779774;30;20213;-81
2024/02/04 08:44:44;;;;;;;2.37;1.70;;;;;;;;;;4791320;30;20194;-81
2024/02/04 08:47:48;;;;;;;2.27;1.70;;;;;;;;;;4779743;29;20221;-81
2024/02/04 08:50:54;;;;;;;2.90;1.97;;;;;;;;;;4779335;30;20541;-83
2024/02/04 08:53:58;;;;;;;2.47;1.93;;;;;;;;;;4779492;30;20644;-83
2024/02/04 08:57:02;;;;;;;2.00;1.90;;;;;;;;;;4779549;30;20190;-83
2024/02/04 09:00:11;;;;;;;2.67;1.93;;;;;;;;;;4790611;30;20189;-83
2024/02/04 09:03:15;;;;;;;4.10;2.30;;;;;;;;;;4790145;30;20197;-83
2024/02/04 09:06:20;;;;;;;3.67;2.00;;;;;;;;;;4779302;30;20292;-83
2024/02/04 09:09:25;;;;;;;2.90;1.77;;;;;;;;;;4779283;30;20219;-84
2024/02/04 09:12:29;;;;;;;2.37;1.93;;;;;;;;;;4794247;30;20190;-83
2024/02/04 09:15:33;;;;;;;4.83;1.80;;;;;;;;;;4783590;30;20194;-84
2024/02/04 09:18:38;;;;;;;3.00;2.00;;;;;;;;;;4784472;30;20703;-83
2024/02/04 09:21:42;;;;;;;2.70;1.70;;;;;;;;;;4784430;30;20561;-83
2024/02/04 09:24:47;;;;;;;2.33;1.83;;;;;;;;;;4784209;30;20189;-83
2024/02/04 09:27:51;;;;;;;2.37;1.73;;;;;;;;;;4802725;29;20225;-83
2024/02/04 09:30:55;;;;;;;3.13;2.33;;;;;;;;;;4782006;30;20197;-84
2024/02/04 09:34:00;;;;;;;3.73;1.83;;;;;;;;;;4780399;30;20197;-83
2024/02/04 09:37:06;;;;;;;2.17;1.80;;;;;;;;;;4794927;30;20190;-84
2024/02/04 09:40:11;;;;;;;2.33;1.50;;;;;;;;;;4787426;30;20210;-84
2024/02/04 09:43:15;;;;;;;1.83;1.73;;;;;;;;;;4786663;30;20202;-83
2024/02/04 09:46:20;;;;;;;2.93;1.67;;;;;;;;;;4797610;30;20218;-84
2024/02/04 09:49:27;;;;;;;1.60;1.50;;;;;;;;;;4786618;30;20198;-83
2024/02/04 09:52:33;;;;;;;2.53;1.60;;;;;;;;;;4808736;29;20197;-84
2024/02/04 09:55:39;;;;;;;3.10;1.77;;;;;;;;;;4799398;30;20194;-83
2024/02/04 09:58:44;;;;;;;2.10;1.90;;;;;;;;;;4786673;30;20225;-83
2024/02/04 10:01:50;;;;;;;3.47;2.20;;;;;;;;;;4789738;30;20198;-83
2024/02/04 10:04:54;;;;;;;2.73;2.47;;;;;;;;;;4789335;30;20190;-83
2024/02/04 10:07:58;;;;;;;3.40;2.00;;;;;;;;;;4799677;30;20229;-83
2024/02/04 10:11:04;;;;;;;2.10;1.83;;;;;;;;;;4778904;30;20193;-83
2024/02/04 10:14:09;;;;;;;3.00;1.93;;;;;;;;;;4799922;30;20190;-83
2024/02/04 10:17:15;;;;;;;1.50;1.37;;;;;;;;;;4799490;30;20216;-83
2024/02/04 10:20:20;;;;;;;1.40;1.30;;;;;;;;;;4798744;30;20190;-83
2024/02/04 10:23:24;;;;;;;1.83;1.63;;;;;;;;;;4787884;30;20194;-83
2024/02/04 10:26:34;;;;;;;1.23;1.13;;;;;;;;;;4797461;30;20573;-83
2024/02/04 10:29:39;;;;;;;1.70;1.60;;;;;;;;;;4797412;30;20190;-83
2024/02/04 10:32:45;;;;;;;1.70;1.40;;;;;;;;;;4786123;30;20193;-83
2024/02/04 10:35:49;;;;;;;4.50;1.33;;;;;;;;;;4775355;30;20629;-83
2024/02/04 10:38:53;;;;;;;1.40;1.20;;;;;;;;;;4785175;30;20229;-83
2024/02/04 10:42:03;;;;;;;1.23;1.10;;;;;;;;;;4775882;30;20217;-84
2024/02/04 10:45:09;;;;;;;1.30;1.00;;;;;;;;;;4796441;30;20194;-83
2024/02/04 10:48:19;;;;;;;1.33;0.90;;;;;;;;;;4784646;30;20221;-83
2024/02/04 10:51:26;;;;;;;1.73;1.10;;;;;;;;;;4784997;30;20190;-83
2024/02/04 10:54:33;;;;;;;1.70;1.00;;;;;;;;;;4796948;30;20649;-83
2024/02/04 10:57:38;;;;;;;1.00;0.90;;;;;;;;;;4795429;30;20727;-83
2024/02/04 11:00:44;;;;;;;1.00;0.90;;;;;;;;;;4785277;30;20198;-83
2024/02/04 11:03:51;;;;;;;1.10;1.00;;;;;;;;;;4805844;29;20193;-83
2024/02/04 11:06:56;;;;;;;1.10;1.00;;;;;;;;;;4785037;30;20225;-83
2024/02/04 11:10:04;;;;;;;1.30;0.90;;;;;;;;;;4785195;30;20649;-83
2024/02/04 11:13:10;;;;;;;1.77;1.00;;;;;;;;;;4784553;30;20193;-83
2024/02/04 11:16:36;;;;;;;1.20;0.90;;;;;;;;;;4784197;30;20189;-83
2024/02/04 11:20:13;;;;;;;1.00;0.90;;;;;;;;;;4784258;30;20186;-83
2024/02/04 11:23:41;;;;;;;2.37;1.40;;;;;;;;;;4785075;30;20190;-84
2024/02/04 11:26:46;;;;;;;1.23;1.13;;;;;;;;;;4800347;29;20221;-83
2024/02/04 11:29:50;;;;;;;1.10;0.90;;;;;;;;;;4784089;30;20201;-83
2024/02/04 11:32:55;;;;;;;1.13;1.00;;;;;;;;;;4794097;29;20193;-81
2024/02/04 11:36:13;;;;;;;1.67;0.83;;;;;;;;;;4773468;30;20198;-82
2024/02/04 11:39:21;;;;;;;1.97;0.80;;;;;;;;;;4783540;30;20229;-82
2024/02/04 11:42:31;;;;;;;1.73;1.07;;;;;;;;;;4795449;30;20217;-83
2024/02/04 11:45:39;;;;;;;2.43;1.07;;;;;;;;;;4794443;30;20652;-83
2024/02/04 11:48:53;;;;;;;1.00;0.90;;;;;;;;;;4781816;30;20226;-83
2024/02/04 11:51:56;;;;;;;1.00;0.90;;;;;;;;;;4793433;30;20197;-83
2024/02/04 11:55:01;;;;;;;4.43;1.13;;;;;;;;;;4781325;30;20189;-83
2024/02/04 11:58:09;;;;;;;2.47;0.90;;;;;;;;;;4792897;30;20229;-83
2024/02/04 12:01:15;;;;;;;1.07;0.80;;;;;;;;;;4802678;29;20549;-83
2024/02/04 12:04:20;;;;;;;0.80;0.73;;;;;;;;;;4782086;30;20193;-82
2024/02/04 12:07:24;;;;;;;1.73;0.93;;;;;;;;;;4792800;30;20241;-83
2024/02/04 12:10:30;;;;;;;0.93;0.73;;;;;;;;;;4793527;30;20190;-82
2024/02/04 12:13:38;;;;;;;0.77;0.70;;;;;;;;;;4781163;30;20190;-82
2024/02/04 12:16:42;;;;;;;1.43;1.10;;;;;;;;;;4792346;30;20186;-83
2024/02/04 12:19:46;;;;;;;5.93;2.77;;;;;;;;;;4801866;29;20206;-84
2024/02/04 12:22:50;;;;;;;0.97;0.90;;;;;;;;;;4782015;30;20190;-83
2024/02/04 12:25:54;;;;;;;0.80;0.77;;;;;;;;;;4791867;29;20194;-82
2024/02/04 12:28:58;;;;;;;3.43;1.20;;;;;;;;;;4793421;30;20225;-83
2024/02/04 12:32:03;;;;;;;1.40;0.90;;;;;;;;;;4781631;30;20193;-83
2024/02/04 12:35:09;;;;;;;1.93;0.80;;;;;;;;;;4782074;30;20190;-83
2024/02/04 12:38:17;;;;;;;1.10;0.97;;;;;;;;;;4782465;30;20225;-83
2024/02/04 12:41:22;;;;;;;1.67;0.90;;;;;;;;;;4801838;29;20221;-84
2024/02/04 12:44:26;;;;;;;1.30;0.90;;;;;;;;;;4781489;30;20637;-84
2024/02/04 12:47:30;;;;;;;1.20;0.90;;;;;;;;;;4781024;30;20240;-84
2024/02/04 12:50:37;;;;;;;1.63;1.00;;;;;;;;;;4792187;30;20194;-83
2024/02/04 12:53:41;;;;;;;2.73;0.80;;;;;;;;;;4780949;30;20189;-84
2024/02/04 12:56:48;;;;;;;1.13;0.83;;;;;;;;;;4792606;30;20193;-83
2024/02/04 13:00:05;;;;;;;1.60;0.80;;;;;;;;;;4801538;29;20194;-84
2024/02/04 13:03:09;;;;;;;2.03;0.90;;;;;;;;;;4800979;29;20194;-83
2024/02/04 13:06:14;;;;;;;1.30;0.80;;;;;;;;;;4780381;30;20197;-84
2024/02/04 13:09:19;;;;;;;1.50;1.00;;;;;;;;;;4780086;30;20233;-83
2024/02/04 13:12:23;;;;;;;0.80;0.80;;;;;;;;;;4780329;30;20190;-83
2024/02/04 13:15:32;;;;;;;0.97;0.83;;;;;;;;;;4791061;30;20205;-83
2024/02/04 13:18:36;;;;;;;4.93;3.53;;;;;;;;;;4791002;30;20225;-83
2024/02/04 13:21:40;;;;;;;1.43;1.33;;;;;;;;;;4791137;30;20193;-83
2024/02/04 13:24:44;;;;;;;1.00;0.90;;;;;;;;;;4791241;30;20197;-83
2024/02/04 13:27:49;;;;;;;1.00;0.70;;;;;;;;;;4779245;30;20245;-87
2024/02/04 13:30:53;;;;;;;1.40;0.70;;;;;;;;;;4791606;30;20202;-87
2024/02/04 13:33:58;;;;;;;1.03;0.90;;;;;;;;;;4790396;30;20198;-86
2024/02/04 13:37:02;;;;;;;2.10;0.60;;;;;;;;;;4782814;30;20190;-86
2024/02/04 13:40:08;;;;;;;3.17;0.80;;;;;;;;;;4793881;30;20189;-87
2024/02/04 13:43:12;;;;;;;1.77;0.80;;;;;;;;;;4803506;29;20193;-87
2024/02/04 13:46:16;;;;;;;2.00;0.80;;;;;;;;;;4793611;30;20656;-86
2024/02/04 13:49:20;;;;;;;1.00;0.80;;;;;;;;;;4803323;29;20221;-86
2024/02/04 13:52:24;;;;;;;1.23;0.70;;;;;;;;;;4782818;30;20533;-86
2024/02/04 13:55:28;;;;;;;1.10;0.93;;;;;;;;;;4782511;30;20193;-87
2024/02/04 13:58:32;;;;;;;2.20;1.17;;;;;;;;;;4793860;30;20229;-87
2024/02/04 14:01:37;;;;;;;1.27;1.10;;;;;;;;;;4782589;30;20193;-87
2024/02/04 14:04:41;;;;;;;2.60;1.80;;;;;;;;;;4782237;30;20189;-87
2024/02/04 14:07:45;;;;;;;11.60;5.33;;;;;;;;;;4782645;30;20245;-86
2024/02/04 14:10:49;;;;;;;11.60;5.20;;;;;;;;;;4782281;30;20194;-86
2024/02/04 14:13:53;;;;;;;3.50;1.10;;;;;;;;;;4782560;30;20193;-87
2024/02/04 14:16:57;;;;;;;74.13;24.90;;;;;;;;;;4793302;30;20189;-87
2024/02/04 14:20:01;;;;;;;39.97;13.07;;;;;;;;;;4782341;30;20200;-87
2024/02/04 14:23:05;;;;;;;37.67;12.33;;;;;;;;;;4782567;30;20201;-87
2024/02/04 14:26:17;;;;;;;57.67;19.50;;;;;;;;;;4782418;30;20194;-86
2024/02/04 14:29:21;;;;;;;16.17;7.67;;;;;;;;;;4793234;30;20232;-87
2024/02/04 14:32:25;;;;;;;18.20;8.97;;;;;;;;;;4782846;30;20193;-87
2024/02/04 14:35:30;;;;;;;11.70;8.10;;;;;;;;;;4782208;30;20197;-87
2024/02/04 14:38:38;;;;;;;2.37;1.80;;;;;;;;;;4772610;30;20229;-88
2024/02/04 14:41:43;;;;;;;2.97;2.20;;;;;;;;;;4782158;30;20221;-88
2024/02/04 14:44:47;;;;;;;3.33;0.80;;;;;;;;;;4782320;30;20637;-88
2024/02/04 14:47:52;;;;;;;1.10;0.90;;;;;;;;;;4780999;30;20340;-88
2024/02/04 14:50:59;;;;;;;1.30;0.93;;;;;;;;;;4782281;30;20194;-87
2024/02/04 14:54:03;;;;;;;1.23;1.00;;;;;;;;;;4782262;30;20197;-88
2024/02/04 14:57:08;;;;;;;1.30;0.80;;;;;;;;;;4761175;30;20197;-86
2024/02/04 15:00:14;;;;;;;3.07;1.23;;;;;;;;;;4771216;30;20189;-86
2024/02/04 15:03:18;;;;;;;1.70;0.80;;;;;;;;;;4781960;30;20194;-87
2024/02/04 15:06:22;;;;;;;2.80;1.30;;;;;;;;;;4781584;30;20548;-86
2024/02/04 15:09:26;;;;;;;4.60;3.47;;;;;;;;;;4781333;30;20189;-86
2024/02/04 15:12:31;;;;;;;2.27;1.77;;;;;;;;;;4781414;30;20193;-86
2024/02/04 15:15:36;;;;;;;1.50;0.80;;;;;;;;;;4781577;30;20198;-86
2024/02/04 15:18:40;;;;;;;1.97;0.73;;;;;;;;;;4781797;30;20700;-86
2024/02/04 15:21:46;;;;;;;3.10;1.00;;;;;;;;;;4792356;30;20534;-86
2024/02/04 15:24:51;;;;;;;2.53;0.80;;;;;;;;;;4802782;29;20197;-87
2024/02/04 15:27:56;;;;;;;0.77;0.77;;;;;;;;;;4781439;30;20249;-86
2024/02/04 15:31:00;;;;;;;2.13;1.07;;;;;;;;;;4781338;30;20193;-86
2024/02/04 15:34:07;;;;;;;1.60;1.00;;;;;;;;;;4781455;30;20189;-87
2024/02/04 15:37:11;;;;;;;0.73;0.70;;;;;;;;;;4781822;30;20194;-86
2024/02/04 15:40:15;;;;;;;1.13;0.80;;;;;;;;;;4781255;30;20213;-86
2024/02/04 15:43:20;;;;;;;2.60;0.80;;;;;;;;;;4781639;30;20201;-87
2024/02/04 15:46:24;;;;;;;2.10;0.80;;;;;;;;;;4801406;29;20189;-86
2024/02/04 15:49:29;;;;;;;3.20;1.23;;;;;;;;;;4780956;30;20198;-87
2024/02/04 15:52:34;;;;;;;7.40;4.37;;;;;;;;;;4781031;30;20194;-87
2024/02/04 15:55:38;;;;;;;9.47;5.27;;;;;;;;;;4781347;30;20190;-87
2024/02/04 15:58:43;;;;;;;6.67;3.17;;;;;;;;;;4780276;30;20226;-87
2024/02/04 16:01:47;;;;;;;2.93;1.80;;;;;;;;;;4781275;30;20190;-87
2024/02/04 16:04:52;;;;;;;2.07;1.40;;;;;;;;;;4781550;30;20194;-87
2024/02/04 16:07:57;;;;;;;4.23;1.20;;;;;;;;;;4791228;30;20241;-87
2024/02/04 16:11:06;;;;;;;2.30;0.97;;;;;;;;;;4780664;30;20193;-87
2024/02/04 16:14:11;;;;;;;0.93;0.80;;;;;;;;;;4781509;30;20193;-87
2024/02/04 16:17:19;;;;;;;1.83;1.10;;;;;;;;;;4770746;30;20193;-86
2024/02/04 16:20:25;;;;;;;1.50;1.13;;;;;;;;;;4781250;30;20194;-86
2024/02/04 16:23:30;;;;;;;3.43;1.10;;;;;;;;;;4792986;30;20197;-85
2024/02/04 16:26:34;;;;;;;1.77;1.40;;;;;;;;;;4792456;30;20656;-86
2024/02/04 16:29:41;;;;;;;3.37;2.60;;;;;;;;;;4792291;30;20225;-85
2024/02/04 16:32:45;;;;;;;4.20;2.03;;;;;;;;;;4792272;30;20202;-85
2024/02/04 16:35:49;;;;;;;3.67;1.70;;;;;;;;;;4781500;30;20771;-86
2024/02/04 16:38:54;;;;;;;2.50;0.90;;;;;;;;;;4780636;30;20229;-86
2024/02/04 16:41:59;;;;;;;3.80;2.20;;;;;;;;;;4780342;30;20213;-86
2024/02/04 16:45:04;;;;;;;2.60;1.33;;;;;;;;;;4791826;30;20194;-85
2024/02/04 16:48:11;;;;;;;8.53;5.20;;;;;;;;;;4791863;30;20246;-86
2024/02/04 16:51:15;;;;;;;7.90;6.10;;;;;;;;;;4780209;30;20193;-86
2024/02/04 16:54:24;;;;;;;9.47;6.60;;;;;;;;;;4780004;30;20221;-86
2024/02/04 16:57:27;;;;;;;2.60;1.70;;;;;;;;;;4791704;30;20225;-86
2024/02/04 17:00:32;;;;;;;2.67;1.20;;;;;;;;;;4791205;30;20190;-86
2024/02/04 17:03:37;;;;;;;1.53;1.30;;;;;;;;;;4770081;30;20190;-86
2024/02/04 17:06:44;;;;;;;3.53;1.33;;;;;;;;;;4780704;30;20185;-86
2024/02/04 17:09:52;;;;;;;2.97;1.03;;;;;;;;;;4800464;29;20691;-86
2024/02/04 17:12:57;;;;;;;1.67;1.10;;;;;;;;;;4780230;30;20198;-86
2024/02/04 17:16:53;;;;;;;2.40;1.23;;;;;;;;;;4779769;30;20548;-86
2024/02/04 17:20:16;;;;;;;4.20;1.33;;;;;;;;;;4795946;30;20201;-86
2024/02/04 17:23:21;;;;;;;5.43;2.47;;;;;;;;;;4779694;30;20239;-86
2024/02/04 17:26:28;;;;;;;2.40;2.00;;;;;;;;;;4779315;30;20541;-87
2024/02/04 17:29:32;;;;;;;3.07;2.10;;;;;;;;;;4780176;30;20217;-86
2024/02/04 17:32:40;;;;;;;9.13;4.80;;;;;;;;;;4800984;29;20193;-86
2024/02/04 17:35:48;;;;;;;13.47;5.73;;;;;;;;;;4780996;30;20194;-86
2024/02/04 17:38:52;;;;;;;4.23;3.83;;;;;;;;;;4790094;30;20225;-86
2024/02/04 17:41:56;;;;;;;1.60;1.23;;;;;;;;;;4789798;29;20217;-86
2024/02/04 17:45:00;;;;;;;1.63;1.10;;;;;;;;;;4779583;30;20205;-86
2024/02/04 17:48:05;;;;;;;1.63;1.20;;;;;;;;;;4779382;30;20240;-86
2024/02/04 17:51:09;;;;;;;0.60;0.60;;;;;;;;;;4790217;30;20197;-86
2024/02/04 17:54:13;;;;;;;1.03;0.70;;;;;;;;;;4769285;30;20194;-86
2024/02/04 17:57:17;;;;;;;1.67;0.90;;;;;;;;;;4790662;30;20197;-86
2024/02/04 18:00:22;;;;;;;2.63;1.50;;;;;;;;;;4780574;30;20190;-86
2024/02/04 18:03:26;;;;;;;1.00;0.73;;;;;;;;;;4779527;30;20198;-86
2024/02/04 18:06:31;;;;;;;1.70;0.90;;;;;;;;;;4791610;30;20197;-86
2024/02/04 18:09:38;;;;;;;1.00;0.60;;;;;;;;;;4780876;30;20225;-86
2024/02/04 18:12:42;;;;;;;1.23;0.77;;;;;;;;;;4791607;30;20190;-85
2024/02/04 18:15:53;;;;;;;2.13;0.87;;;;;;;;;;4790894;30;20194;-85
2024/02/04 18:18:57;;;;;;;1.27;0.70;;;;;;;;;;4780726;30;20217;-86
2024/02/04 18:22:02;;;;;;;1.00;0.70;;;;;;;;;;4802866;29;20190;-86
2024/02/04 18:25:10;;;;;;;1.30;0.90;;;;;;;;;;4782330;30;20189;-85
2024/02/04 18:28:14;;;;;;;1.47;1.00;;;;;;;;;;4792826;30;20589;-85
2024/02/04 18:31:19;;;;;;;3.13;0.90;;;;;;;;;;4782618;30;20194;-85